Time;durP1;ratioP1;P1;durP2;ratioP2;P2;SDS_P1;SDS_P2;PMS_P1;PMS_P2;Temp;Humidity;BMP_temperature;BMP_pressure;BME280_temperature;BME280_humidity;BME280_pressure;Samples;Min_cycle;Max_cycle;Signal;HPM_P1;HPM_P2
2021/07/08 00:01:06;;;;;;;11.27;5.40;;;20.20;96.30;;;;;;5016639;28;20108;-83
2021/07/08 00:03:32;;;;;;;7.70;5.47;;;20.20;96.20;;;;;;4998790;28;20053;-84
2021/07/08 00:05:58;;;;;;;6.78;5.60;;;20.20;96.70;;;;;;4999004;28;20062;-84
2021/07/08 00:08:23;;;;;;;7.78;5.20;;;20.20;96.50;;;;;;4998867;28;20049;-84
2021/07/08 00:10:52;;;;;;;9.75;5.53;;;20.20;94.70;;;;;;4998829;28;20026;-83
2021/07/08 00:13:22;;;;;;;6.88;5.40;;;20.20;95.90;;;;;;4998658;28;20025;-83
2021/07/08 00:15:48;;;;;;;10.70;6.25;;;20.20;95.40;;;;;;5016476;28;20702;-84
2021/07/08 00:18:15;;;;;;;12.68;5.85;;;20.20;95.70;;;;;;5015651;28;20037;-83
2021/07/08 00:20:43;;;;;;;7.10;5.20;;;20.10;96.80;;;;;;4998633;28;20447;-83
2021/07/08 00:23:09;;;;;;;9.18;5.38;;;20.10;96.20;;;;;;4999501;28;20076;-84
2021/07/08 00:25:35;;;;;;;5.93;5.22;;;20.10;97.10;;;;;;4998464;28;20017;-83
2021/07/08 00:28:01;;;;;;;6.25;5.20;;;20.10;96.20;;;;;;4998522;28;20029;-83
2021/07/08 00:30:28;;;;;;;11.40;5.72;;;20.00;97.20;;;;;;4998292;28;20022;-83
2021/07/08 00:32:54;;;;;;;9.35;5.72;;;19.90;97.40;;;;;;4998383;28;20018;-83
2021/07/08 00:35:20;;;;;;;8.57;5.22;;;19.80;97.40;;;;;;5015837;28;20100;-83
2021/07/08 00:37:45;;;;;;;6.95;5.15;;;19.60;98.80;;;;;;4998308;28;20042;-83
2021/07/08 00:40:13;;;;;;;6.88;5.20;;;19.50;99.10;;;;;;4998045;28;20080;-83
2021/07/08 00:42:40;;;;;;;6.22;4.90;;;19.40;99.90;;;;;;4998213;28;20068;-83
2021/07/08 00:45:09;;;;;;;8.90;5.53;;;19.40;99.90;;;;;;5015731;28;20037;-83
2021/07/08 00:47:35;;;;;;;6.72;6.07;;;19.40;99.90;;;;;;4998018;28;20018;-83
2021/07/08 00:50:01;;;;;;;6.88;6.28;;;19.40;99.90;;;;;;4998048;28;20383;-83
2021/07/08 00:52:26;;;;;;;10.25;6.00;;;19.40;99.90;;;;;;5015144;28;20116;-83
2021/07/08 00:54:52;;;;;;;6.85;5.80;;;19.30;99.90;;;;;;5034291;28;20037;-83
2021/07/08 00:57:18;;;;;;;9.98;5.72;;;19.30;99.90;;;;;;5035213;28;20039;-83
2021/07/08 00:59:45;;;;;;;10.02;6.35;;;19.30;99.90;;;;;;5035355;28;20034;-83
2021/07/08 01:02:13;;;;;;;11.23;6.53;;;19.20;99.90;;;;;;5017511;28;20098;-83
2021/07/08 01:04:44;;;;;;;8.50;5.63;;;19.20;99.90;;;;;;5015739;28;20025;-84
2021/07/08 01:07:19;;;;;;;6.95;6.30;;;19.20;99.90;;;;;;5017002;28;20483;-84
2021/07/08 01:09:44;;;;;;;9.38;6.25;;;19.00;99.90;;;;;;5016941;28;20034;-84
2021/07/08 01:12:10;;;;;;;7.93;6.05;;;18.80;99.90;;;;;;5017587;28;20026;-83
2021/07/08 01:14:37;;;;;;;8.25;6.20;;;18.80;99.90;;;;;;5035056;28;20475;-84
2021/07/08 01:17:06;;;;;;;9.85;7.55;;;18.70;99.90;;;;;;5017073;28;20021;-83
2021/07/08 01:19:37;;;;;;;8.52;6.95;;;18.70;99.90;;;;;;5017472;28;20508;-84
2021/07/08 01:22:03;;;;;;;11.90;7.13;;;18.60;99.90;;;;;;5003405;28;20105;-83
2021/07/08 01:24:30;;;;;;;8.02;6.95;;;18.60;99.90;;;;;;4997707;28;20092;-84
2021/07/08 01:26:57;;;;;;;7.78;6.95;;;18.50;99.90;;;;;;4997498;28;20467;-84
2021/07/08 01:29:24;;;;;;;10.07;7.38;;;18.50;99.90;;;;;;4997267;28;20099;-84
2021/07/08 01:31:50;;;;;;;8.95;7.28;;;18.50;99.90;;;;;;4997379;28;20034;-83
2021/07/08 01:34:16;;;;;;;8.45;6.88;;;18.50;99.90;;;;;;4997218;28;20021;-85
2021/07/08 01:36:41;;;;;;;12.38;7.55;;;18.50;99.90;;;;;;5007045;28;20024;-83
2021/07/08 01:39:07;;;;;;;8.70;7.22;;;18.50;99.90;;;;;;5016621;28;20029;-84
2021/07/08 01:41:33;;;;;;;8.63;7.32;;;18.50;99.90;;;;;;5016594;28;20017;-83
2021/07/08 01:44:00;;;;;;;7.95;6.93;;;18.60;99.90;;;;;;5016763;28;20025;-84
2021/07/08 01:46:26;;;;;;;8.18;7.47;;;18.60;99.90;;;;;;5016624;28;20032;-83
2021/07/08 01:48:52;;;;;;;7.93;7.15;;;18.40;99.90;;;;;;5016605;28;20376;-83
2021/07/08 01:51:28;;;;;;;9.23;8.35;;;18.30;99.90;;;;;;5014596;28;20037;-83
2021/07/08 01:53:55;;;;;;;10.73;7.20;;;18.30;99.90;;;;;;5016808;28;20079;-83
2021/07/08 01:56:21;;;;;;;8.60;7.55;;;18.40;99.90;;;;;;5016469;28;20039;-83
2021/07/08 01:58:47;;;;;;;7.43;6.55;;;18.20;99.90;;;;;;5027580;28;20041;-83
2021/07/08 02:01:13;;;;;;;9.75;7.85;;;18.20;99.90;;;;;;4996673;28;20022;-82
2021/07/08 02:03:38;;;;;;;9.63;6.75;;;18.20;99.90;;;;;;5014298;28;20088;-84
2021/07/08 02:06:05;;;;;;;7.45;6.80;;;18.20;99.90;;;;;;4996558;28;20022;-82
2021/07/08 02:08:31;;;;;;;8.55;7.43;;;18.20;99.90;;;;;;5013916;28;20028;-83
2021/07/08 02:10:57;;;;;;;9.00;7.10;;;18.20;99.90;;;;;;4996618;28;20014;-83
2021/07/08 02:13:23;;;;;;;9.85;7.53;;;18.10;99.90;;;;;;4996476;28;20026;-84
2021/07/08 02:15:48;;;;;;;8.73;7.90;;;18.00;99.90;;;;;;4996606;28;20030;-83
2021/07/08 02:18:14;;;;;;;8.73;7.85;;;18.00;99.90;;;;;;4996380;28;20124;-83
2021/07/08 02:20:41;;;;;;;8.18;7.43;;;18.00;99.90;;;;;;4996785;28;20046;-83
2021/07/08 02:23:07;;;;;;;8.98;7.68;;;18.00;99.90;;;;;;4996313;28;20165;-83
2021/07/08 02:25:33;;;;;;;9.68;8.07;;;18.00;99.90;;;;;;4996267;28;20104;-84
2021/07/08 02:27:58;;;;;;;10.05;6.95;;;18.00;99.90;;;;;;5013957;28;20460;-84
2021/07/08 02:30:26;;;;;;;9.25;7.75;;;18.00;99.90;;;;;;4997983;28;20076;-84
2021/07/08 02:32:54;;;;;;;9.40;8.27;;;18.00;99.90;;;;;;4996201;28;20026;-84
2021/07/08 02:35:23;;;;;;;11.27;7.25;;;17.90;99.90;;;;;;5013911;28;20038;-84
2021/07/08 02:37:49;;;;;;;8.50;7.65;;;17.80;99.90;;;;;;5013630;28;20046;-84
2021/07/08 02:40:32;;;;;;;10.73;7.60;;;17.60;99.90;;;;;;5013647;28;20372;-84
2021/07/08 02:43:00;;;;;;;10.05;8.00;;;17.50;99.90;;;;;;5013752;28;20443;-84
2021/07/08 02:45:30;;;;;;;13.25;9.00;;;17.50;99.90;;;;;;5013519;28;20018;-84
2021/07/08 02:47:58;;;;;;;12.18;9.30;;;17.50;99.90;;;;;;4996061;28;20045;-84
2021/07/08 02:50:25;;;;;;;10.75;9.27;;;17.60;99.90;;;;;;4995817;28;20138;-83
2021/07/08 02:52:51;;;;;;;11.57;9.77;;;17.70;99.90;;;;;;4996019;28;20041;-85
2021/07/08 02:55:17;;;;;;;13.10;10.35;;;17.70;99.90;;;;;;4995657;28;20022;-85
2021/07/08 02:57:46;;;;;;;11.23;10.02;;;17.70;99.90;;;;;;4995761;28;20034;-84
2021/07/08 03:00:15;;;;;;;11.63;10.35;;;17.70;99.90;;;;;;5010960;28;20120;-84
2021/07/08 03:02:40;;;;;;;11.75;10.55;;;17.70;99.90;;;;;;5014973;28;20036;-84
2021/07/08 03:05:07;;;;;;;13.25;10.25;;;17.70;99.90;;;;;;5033019;28;20029;-85
2021/07/08 03:07:33;;;;;;;11.40;9.68;;;17.60;99.90;;;;;;5015176;28;20032;-84
2021/07/08 03:09:59;;;;;;;10.38;9.30;;;17.70;99.90;;;;;;5015211;28;20052;-84
2021/07/08 03:12:24;;;;;;;10.15;9.13;;;17.70;99.90;;;;;;4995420;28;20049;-83
2021/07/08 03:14:50;;;;;;;15.57;9.90;;;17.80;99.90;;;;;;5013296;28;20029;-84
2021/07/08 03:17:16;;;;;;;14.68;9.60;;;17.70;99.90;;;;;;4994924;28;20076;-82
2021/07/08 03:19:41;;;;;;;9.88;8.88;;;17.70;99.90;;;;;;4995569;28;20033;-84
2021/07/08 03:22:07;;;;;;;12.25;9.52;;;17.80;99.90;;;;;;4995497;28;20569;-84
2021/07/08 03:24:33;;;;;;;8.88;7.97;;;17.80;99.90;;;;;;5012976;28;20098;-84
2021/07/08 03:26:59;;;;;;;11.05;9.05;;;17.70;99.90;;;;;;5011793;28;20088;-82
2021/07/08 03:29:24;;;;;;;9.00;8.02;;;17.60;99.90;;;;;;5006570;28;20056;-84
2021/07/08 03:31:51;;;;;;;12.45;9.43;;;17.60;99.90;;;;;;5032752;28;20413;-83
2021/07/08 03:34:17;;;;;;;8.95;8.13;;;17.50;99.90;;;;;;5014897;28;20022;-84
2021/07/08 03:36:42;;;;;;;9.70;8.43;;;17.60;99.90;;;;;;5005514;28;20595;-82
2021/07/08 03:39:08;;;;;;;9.65;8.18;;;17.60;99.90;;;;;;5012979;28;20099;-84
2021/07/08 03:41:34;;;;;;;9.73;8.73;;;17.60;99.90;;;;;;5012453;28;20060;-83
2021/07/08 03:44:00;;;;;;;10.63;8.98;;;17.60;99.90;;;;;;4994983;28;20033;-84
2021/07/08 03:46:26;;;;;;;10.00;8.93;;;17.60;99.90;;;;;;5011011;28;20018;-83
2021/07/08 03:48:51;;;;;;;12.57;9.45;;;17.70;99.90;;;;;;4993464;28;20546;-84
2021/07/08 03:51:17;;;;;;;9.38;8.35;;;17.60;99.90;;;;;;4994098;28;20034;-84
2021/07/08 03:53:43;;;;;;;10.73;9.48;;;17.60;99.90;;;;;;5012831;28;20034;-83
2021/07/08 03:56:09;;;;;;;15.00;9.13;;;17.60;99.90;;;;;;5012294;28;20471;-83
2021/07/08 03:58:35;;;;;;;8.75;7.95;;;17.60;99.90;;;;;;4994830;28;20041;-84
2021/07/08 04:01:00;;;;;;;9.50;8.68;;;17.70;99.90;;;;;;4995147;28;20083;-83
2021/07/08 04:03:26;;;;;;;12.45;8.63;;;17.70;99.90;;;;;;4994890;28;20052;-84
2021/07/08 04:05:52;;;;;;;11.15;8.95;;;17.70;99.90;;;;;;4994882;28;20037;-83
2021/07/08 04:08:17;;;;;;;16.45;8.30;;;17.60;99.90;;;;;;5012009;28;20071;-82
2021/07/08 04:10:44;;;;;;;9.18;7.88;;;17.70;99.90;;;;;;4995063;28;20022;-83
2021/07/08 04:13:16;;;;;;;7.80;7.10;;;17.80;99.90;;;;;;5011835;28;20041;-84
2021/07/08 04:15:44;;;;;;;9.25;7.57;;;17.80;99.90;;;;;;4994224;28;20033;-84
2021/07/08 04:18:11;;;;;;;10.02;8.38;;;17.90;99.90;;;;;;5011851;28;20041;-85
2021/07/08 04:20:37;;;;;;;9.35;7.93;;;18.00;99.90;;;;;;5003242;28;20479;-85
2021/07/08 04:23:05;;;;;;;9.85;7.70;;;18.10;99.90;;;;;;5030781;28;20033;-84
2021/07/08 04:25:32;;;;;;;10.65;8.00;;;18.10;99.90;;;;;;5013037;28;20033;-85
2021/07/08 04:27:57;;;;;;;10.95;6.55;;;18.20;99.90;;;;;;5033037;28;20025;-84
2021/07/08 04:30:25;;;;;;;7.50;6.10;;;18.20;99.90;;;;;;5035685;28;20030;-84
2021/07/08 04:32:52;;;;;;;7.43;6.47;;;18.30;99.90;;;;;;5017690;28;20036;-84
2021/07/08 04:35:25;;;;;;;6.85;6.18;;;18.00;99.90;;;;;;5034987;28;20209;-84
2021/07/08 04:37:51;;;;;;;8.43;5.70;;;18.00;99.90;;;;;;5034298;28;20419;-85
2021/07/08 04:40:19;;;;;;;7.90;6.47;;;18.00;99.90;;;;;;5016919;28;20034;-85
2021/07/08 04:42:46;;;;;;;7.78;6.18;;;17.90;99.90;;;;;;5015634;28;20032;-84
2021/07/08 04:45:12;;;;;;;9.45;5.80;;;17.90;99.90;;;;;;5033476;28;20513;-83
2021/07/08 04:47:39;;;;;;;8.40;6.28;;;18.00;99.90;;;;;;5033533;28;20014;-83
2021/07/08 04:50:08;;;;;;;9.30;6.63;;;18.10;99.90;;;;;;5004562;28;20377;-84
2021/07/08 04:52:35;;;;;;;8.30;5.88;;;18.10;99.90;;;;;;5013523;28;20030;-84
2021/07/08 04:55:00;;;;;;;9.25;6.35;;;18.10;99.90;;;;;;4995761;28;20388;-84
2021/07/08 04:57:27;;;;;;;9.98;5.97;;;18.30;99.90;;;;;;5013101;28;20033;-82
2021/07/08 04:59:53;;;;;;;14.65;6.97;;;18.40;99.90;;;;;;4995691;28;20369;-83
2021/07/08 05:02:18;;;;;;;12.85;6.78;;;18.40;99.90;;;;;;4995578;28;20063;-82
2021/07/08 05:04:44;;;;;;;11.60;7.97;;;18.50;99.90;;;;;;5013222;28;20392;-83
2021/07/08 05:07:11;;;;;;;10.18;6.40;;;18.50;99.90;;;;;;5013162;28;20026;-83
2021/07/08 05:09:38;;;;;;;12.55;9.00;;;18.50;99.90;;;;;;4995635;28;20025;-84
2021/07/08 05:12:04;;;;;;;18.02;7.82;;;18.70;99.90;;;;;;4996515;28;20025;-83
2021/07/08 05:14:30;;;;;;;16.85;9.43;;;18.80;99.90;;;;;;4997530;28;20057;-82
2021/07/08 05:16:55;;;;;;;34.20;11.25;;;19.00;99.90;;;;;;5016108;28;20511;-84
2021/07/08 05:19:21;;;;;;;28.63;12.50;;;19.10;99.90;;;;;;5034733;28;20402;-83
2021/07/08 05:21:49;;;;;;;27.48;11.43;;;19.20;99.90;;;;;;4998202;28;20113;-82
2021/07/08 05:24:19;;;;;;;21.08;12.77;;;19.30;99.90;;;;;;5014640;28;20040;-85
2021/07/08 05:26:46;;;;;;;17.42;9.27;;;19.40;99.90;;;;;;5015135;28;20029;-83
2021/07/08 05:29:12;;;;;;;20.38;9.50;;;19.60;99.90;;;;;;5014987;28;20097;-84
2021/07/08 05:31:38;;;;;;;15.95;8.43;;;19.80;99.90;;;;;;4997342;28;20034;-84
2021/07/08 05:34:04;;;;;;;17.83;7.40;;;20.10;99.90;;;;;;4997136;28;20113;-84
2021/07/08 05:36:30;;;;;;;15.98;8.85;;;20.30;99.90;;;;;;4997343;28;20406;-84
2021/07/08 05:38:55;;;;;;;12.52;7.65;;;20.20;99.00;;;;;;5014329;28;20108;-83
2021/07/08 05:41:21;;;;;;;16.63;8.93;;;20.30;99.90;;;;;;4997184;28;20014;-83
2021/07/08 05:43:47;;;;;;;13.18;7.20;;;20.10;99.90;;;;;;5013164;28;20030;-84
2021/07/08 05:46:12;;;;;;;13.63;6.68;;;20.10;99.90;;;;;;4996100;28;20241;-83
2021/07/08 05:48:38;;;;;;;13.95;7.65;;;20.10;99.90;;;;;;4997443;28;20038;-85
2021/07/08 05:51:04;;;;;;;16.05;8.55;;;20.00;99.90;;;;;;4996168;28;20382;-84
2021/07/08 05:53:29;;;;;;;11.68;7.22;;;20.20;99.90;;;;;;4996319;28;20117;-84
2021/07/08 05:55:55;;;;;;;13.75;7.80;;;20.30;99.90;;;;;;4996744;28;20491;-83
2021/07/08 05:58:21;;;;;;;13.40;6.45;;;20.40;99.90;;;;;;4996667;28;20037;-85
2021/07/08 06:00:47;;;;;;;12.88;7.53;;;20.70;97.30;;;;;;4996977;28;20037;-83
2021/07/08 06:03:14;;;;;;;17.83;8.35;;;20.80;96.50;;;;;;5014368;28;20026;-83
2021/07/08 06:05:40;;;;;;;22.10;10.77;;;21.00;97.40;;;;;;5014298;28;20100;-83
2021/07/08 06:08:06;;;;;;;24.80;10.25;;;21.10;96.10;;;;;;4996690;28;20551;-83
2021/07/08 06:10:31;;;;;;;21.65;10.57;;;20.90;96.80;;;;;;5013850;28;20476;-84
2021/07/08 06:12:57;;;;;;;21.48;11.15;;;21.10;96.60;;;;;;5001952;28;20143;-82
2021/07/08 06:15:23;;;;;;;22.77;10.88;;;21.20;96.00;;;;;;5012313;28;20376;-83
2021/07/08 06:17:48;;;;;;;23.20;11.23;;;21.20;96.50;;;;;;5010634;28;20530;-84
2021/07/08 06:20:14;;;;;;;18.30;10.60;;;21.30;96.80;;;;;;4994256;28;20026;-83
2021/07/08 06:22:40;;;;;;;22.10;10.20;;;21.40;94.50;;;;;;4993787;28;20498;-83
2021/07/08 06:25:07;;;;;;;21.25;10.55;;;21.70;93.50;;;;;;5008376;28;20041;-83
2021/07/08 06:27:32;;;;;;;18.88;10.68;;;21.90;93.50;;;;;;5011863;28;20334;-82
2021/07/08 06:29:58;;;;;;;20.23;10.02;;;22.00;94.30;;;;;;4994053;28;20026;-83
2021/07/08 06:32:24;;;;;;;20.52;10.90;;;22.10;94.10;;;;;;4994964;28;20029;-83
2021/07/08 06:34:49;;;;;;;20.40;11.27;;;22.30;92.00;;;;;;5013783;28;20041;-82
2021/07/08 06:37:16;;;;;;;17.50;10.93;;;22.20;92.40;;;;;;5015438;28;20056;-82
2021/07/08 06:39:43;;;;;;;23.15;10.40;;;22.20;95.00;;;;;;5032905;28;20030;-82
2021/07/08 06:42:09;;;;;;;19.35;10.35;;;22.20;93.90;;;;;;5015468;28;20472;-82
2021/07/08 06:44:35;;;;;;;16.02;10.20;;;22.40;91.50;;;;;;5016115;28;20036;-84
2021/07/08 06:47:02;;;;;;;21.45;11.43;;;22.40;90.60;;;;;;5000597;28;20022;-81
2021/07/08 06:49:28;;;;;;;27.40;11.65;;;22.30;91.30;;;;;;4998129;28;20041;-82
2021/07/08 06:51:54;;;;;;;23.25;13.77;;;22.30;92.20;;;;;;4990590;28;20458;-83
2021/07/08 06:54:20;;;;;;;23.15;11.82;;;22.20;95.40;;;;;;5010958;28;20022;-82
2021/07/08 06:56:45;;;;;;;22.27;12.70;;;22.00;96.50;;;;;;5012658;28;20472;-83
2021/07/08 06:59:11;;;;;;;26.45;13.73;;;21.90;97.20;;;;;;4994674;28;20030;-83
2021/07/08 07:01:37;;;;;;;31.80;13.23;;;22.20;96.10;;;;;;4994937;28;20505;-82
2021/07/08 07:04:03;;;;;;;31.98;14.82;;;22.10;97.10;;;;;;4994840;28;20034;-83
2021/07/08 07:06:29;;;;;;;28.67;14.07;;;22.10;97.10;;;;;;5012118;28;20021;-82
2021/07/08 07:08:55;;;;;;;29.30;15.98;;;22.20;97.00;;;;;;4994436;28;20025;-82
2021/07/08 07:11:20;;;;;;;29.80;14.95;;;22.50;95.90;;;;;;5012337;28;20068;-83
2021/07/08 07:13:46;;;;;;;26.73;13.98;;;22.60;94.80;;;;;;4994562;28;20026;-82
2021/07/08 07:16:11;;;;;;;27.77;13.50;;;22.60;95.30;;;;;;5011361;28;20491;-81
2021/07/08 07:18:39;;;;;;;28.55;13.88;;;22.70;93.90;;;;;;4994631;28;20483;-80
2021/07/08 07:21:08;;;;;;;29.45;13.75;;;22.90;91.10;;;;;;4994529;28;20030;-81
2021/07/08 07:23:34;;;;;;;26.35;14.00;;;23.00;91.00;;;;;;4994587;28;20161;-81
2021/07/08 07:25:59;;;;;;;26.90;14.13;;;23.00;89.80;;;;;;4994246;28;20049;-82
2021/07/08 07:28:25;;;;;;;25.20;13.88;;;22.90;90.90;;;;;;4993417;28;20125;-82
2021/07/08 07:30:51;;;;;;;25.17;13.85;;;23.10;89.10;;;;;;4994051;28;20095;-81
2021/07/08 07:33:16;;;;;;;28.00;14.90;;;23.20;88.40;;;;;;4994474;28;20037;-81
2021/07/08 07:35:42;;;;;;;29.48;14.23;;;23.40;88.30;;;;;;5011743;28;20049;-81
2021/07/08 07:38:11;;;;;;;28.75;14.98;;;23.30;87.30;;;;;;5010065;28;20048;-81
2021/07/08 07:40:38;;;;;;;27.80;13.48;;;23.30;87.40;;;;;;5010976;28;20152;-81
2021/07/08 07:43:04;;;;;;;28.75;13.50;;;23.10;89.60;;;;;;4992912;28;20033;-81
2021/07/08 07:45:30;;;;;;;29.63;14.23;;;23.10;90.10;;;;;;4994110;28;20026;-82
2021/07/08 07:47:55;;;;;;;30.70;15.15;;;23.00;90.60;;;;;;4993951;28;20415;-82
2021/07/08 07:50:24;;;;;;;28.52;15.55;;;23.10;91.90;;;;;;5010781;28;20403;-75
2021/07/08 07:52:52;;;;;;;25.42;15.07;;;23.20;94.50;;;;;;5011699;28;20156;-76
2021/07/08 07:55:18;;;;;;;24.52;14.32;;;23.20;92.40;;;;;;5011743;28;20543;-75
2021/07/08 07:57:44;;;;;;;24.00;12.90;;;23.10;92.70;;;;;;5011569;28;20045;-76
2021/07/08 08:00:11;;;;;;;28.33;13.88;;;23.20;92.10;;;;;;5008550;28;20029;-75
2021/07/08 08:02:38;;;;;;;39.78;15.07;;;23.20;91.50;;;;;;5011875;28;20448;-76
2021/07/08 08:10:15;;;;;;;23.27;13.85;;;23.50;91.00;;;;;;5014268;28;20113;-76
2021/07/08 08:12:41;;;;;;;28.17;13.38;;;23.50;89.10;;;;;;5013507;28;20101;-75
2021/07/08 08:15:09;;;;;;;23.73;12.77;;;23.50;89.40;;;;;;4996398;28;20519;-76
2021/07/08 08:17:38;;;;;;;27.55;14.68;;;23.60;89.50;;;;;;5012462;28;20049;-77
2021/07/08 08:20:05;;;;;;;25.00;13.07;;;23.50;89.80;;;;;;5013758;28;20034;-76
2021/07/08 08:22:31;;;;;;;29.30;14.43;;;23.60;89.10;;;;;;5012299;28;20068;-77
2021/07/08 08:24:57;;;;;;;24.77;14.45;;;23.60;89.70;;;;;;5014255;28;20034;-76
2021/07/08 08:27:23;;;;;;;30.20;14.23;;;23.70;88.50;;;;;;5014576;28;20395;-77
2021/07/08 08:29:49;;;;;;;30.38;15.35;;;24.10;86.60;;;;;;4996029;28;20029;-76
2021/07/08 08:32:15;;;;;;;25.73;13.60;;;24.20;86.90;;;;;;5011430;28;20022;-77
2021/07/08 08:34:40;;;;;;;22.15;13.60;;;24.40;86.30;;;;;;5013496;28;20026;-76
2021/07/08 08:37:06;;;;;;;25.80;12.57;;;24.80;85.60;;;;;;5013457;28;20049;-76
2021/07/08 08:39:32;;;;;;;25.85;12.43;;;24.90;82.50;;;;;;5013580;28;20463;-76
2021/07/08 08:41:58;;;;;;;20.75;14.00;;;25.10;80.80;;;;;;4995992;28;20227;-76
2021/07/08 08:44:24;;;;;;;23.30;13.52;;;25.10;78.80;;;;;;5012546;28;20455;-76
2021/07/08 08:46:51;;;;;;;20.30;13.50;;;25.00;81.80;;;;;;4996036;28;20113;-77
2021/07/08 08:49:17;;;;;;;25.92;14.18;;;24.90;82.60;;;;;;4994322;28;20104;-77
2021/07/08 08:51:43;;;;;;;20.58;12.30;;;25.00;82.20;;;;;;4979236;28;20029;-76
2021/07/08 08:54:09;;;;;;;20.33;11.77;;;25.00;83.50;;;;;;5011631;28;20033;-77
2021/07/08 08:56:35;;;;;;;21.20;12.45;;;25.30;80.80;;;;;;4993072;28;20026;-77
2021/07/08 08:59:01;;;;;;;39.30;16.42;;;25.50;82.50;;;;;;4994100;28;20396;-76
2021/07/08 09:01:27;;;;;;;23.90;13.25;;;25.70;81.40;;;;;;5012897;28;20030;-78
2021/07/08 09:03:53;;;;;;;26.05;13.00;;;25.80;77.90;;;;;;4995895;28;20026;-78
2021/07/08 09:06:20;;;;;;;21.92;13.85;;;25.80;79.50;;;;;;5012124;28;20036;-77
2021/07/08 09:08:50;;;;;;;19.42;12.90;;;26.10;80.90;;;;;;4992156;28;20030;-78
2021/07/08 09:11:24;;;;;;;26.10;13.48;;;26.10;78.60;;;;;;4992913;28;20028;-77
2021/07/08 09:14:02;;;;;;;21.95;13.57;;;26.20;78.10;;;;;;4990827;28;20033;-77
2021/07/08 09:16:33;;;;;;;22.50;13.63;;;26.30;78.60;;;;;;4992411;28;20026;-76
2021/07/08 09:18:58;;;;;;;19.15;11.60;;;26.30;78.50;;;;;;4993782;28;20048;-79
2021/07/08 09:21:24;;;;;;;21.85;12.88;;;26.60;77.20;;;;;;4993305;28;20018;-79
2021/07/08 09:24:24;;;;;;;19.13;12.05;;;26.60;76.30;;;;;;4993756;28;20133;-79
2021/07/08 09:26:57;;;;;;;21.05;13.52;;;26.70;77.30;;;;;;4993175;28;20491;-79
2021/07/08 09:29:35;;;;;;;21.10;13.57;;;26.90;75.10;;;;;;5013803;28;20029;-79
2021/07/08 09:32:04;;;;;;;20.55;13.82;;;27.00;77.10;;;;;;5014008;28;20097;-79
2021/07/08 09:34:35;;;;;;;20.08;13.55;;;26.90;72.70;;;;;;5014007;28;20018;-79
2021/07/08 09:37:03;;;;;;;20.30;12.95;;;27.00;73.20;;;;;;5013820;28;20025;-80
2021/07/08 09:39:52;;;;;;;21.88;14.95;;;27.00;74.10;;;;;;5012804;28;20121;-79
2021/07/08 09:42:33;;;;;;;21.10;13.57;;;27.20;72.90;;;;;;4992992;28;20402;-78
2021/07/08 09:45:09;;;;;;;17.20;12.45;;;27.30;73.20;;;;;;5011878;28;20018;-77
2021/07/08 09:47:37;;;;;;;23.15;13.68;;;27.30;72.80;;;;;;5016383;28;20061;-77
2021/07/08 09:50:05;;;;;;;20.02;14.30;;;27.30;73.90;;;;;;5012528;28;20022;-77
2021/07/08 09:52:32;;;;;;;17.80;13.13;;;27.10;72.90;;;;;;4995673;28;20066;-78
2021/07/08 09:57:45;;;;;;;25.55;14.30;;;27.30;74.30;;;;;;5012661;28;20034;-77
2021/07/08 10:00:23;;;;;;;24.73;13.85;;;27.40;75.10;;;;;;4994717;28;20022;-77
2021/07/08 10:02:51;;;;;;;19.02;13.30;;;27.40;72.90;;;;;;4991909;28;20500;-77
2021/07/08 10:05:18;;;;;;;22.77;14.45;;;27.50;73.30;;;;;;5011554;28;20026;-76
2021/07/08 10:07:44;;;;;;;22.17;13.77;;;27.50;73.90;;;;;;5011044;28;20028;-77
2021/07/08 10:10:11;;;;;;;19.77;13.75;;;27.40;73.50;;;;;;5009641;28;20033;-77
2021/07/08 10:12:38;;;;;;;20.17;13.85;;;27.30;74.30;;;;;;4993000;28;20049;-77
2021/07/08 10:15:09;;;;;;;22.15;13.52;;;27.50;74.30;;;;;;5012168;28;20448;-78
2021/07/08 10:17:37;;;;;;;19.58;13.65;;;27.60;73.80;;;;;;5010610;28;20030;-80
2021/07/08 10:20:06;;;;;;;26.00;14.63;;;27.80;73.40;;;;;;4994093;28;20025;-80
2021/07/08 10:22:33;;;;;;;19.02;12.40;;;27.60;72.50;;;;;;4992600;28;20029;-81
2021/07/08 10:24:59;;;;;;;20.52;13.85;;;27.80;73.20;;;;;;4994419;28;20080;-80
2021/07/08 10:27:26;;;;;;;21.52;14.88;;;27.80;72.70;;;;;;5001752;28;20022;-80
2021/07/08 10:29:53;;;;;;;20.52;14.18;;;28.00;73.20;;;;;;4994144;28;20022;-80
2021/07/08 10:32:19;;;;;;;21.27;13.00;;;28.10;73.00;;;;;;4993031;28;20022;-79
2021/07/08 10:34:50;;;;;;;17.92;12.85;;;28.20;72.70;;;;;;5012056;28;20084;-79
2021/07/08 10:37:43;;;;;;;22.40;14.07;;;28.40;72.20;;;;;;4994673;28;20391;-79
2021/07/08 10:40:26;;;;;;;16.73;12.90;;;28.60;70.00;;;;;;5008483;28;20108;-79
2021/07/08 10:42:53;;;;;;;18.67;14.18;;;28.70;67.60;;;;;;4993380;28;20018;-80
2021/07/08 10:45:22;;;;;;;19.33;13.95;;;28.80;68.50;;;;;;4992693;28;20040;-80
2021/07/08 10:47:53;;;;;;;18.83;13.05;;;28.80;67.80;;;;;;4991782;28;20549;-81
2021/07/08 10:50:38;;;;;;;16.02;13.07;;;28.90;68.70;;;;;;4992556;28;20037;-80
2021/07/08 10:53:34;;;;;;;20.85;13.05;;;28.80;68.80;;;;;;4994921;28;20036;-80
2021/07/08 10:56:05;;;;;;;19.25;14.20;;;28.90;68.90;;;;;;4992443;28;20415;-79
2021/07/08 10:58:50;;;;;;;19.38;12.65;;;28.50;71.40;;;;;;4992775;28;20117;-80
2021/07/08 11:01:22;;;;;;;16.55;12.73;;;28.30;71.50;;;;;;5009179;28;20021;-79
2021/07/08 11:03:57;;;;;;;19.58;11.93;;;28.40;72.00;;;;;;4991001;28;20436;-79
2021/07/08 11:06:25;;;;;;;13.30;11.68;;;28.40;68.40;;;;;;4992368;28;20038;-79
2021/07/08 11:08:59;;;;;;;16.33;12.02;;;28.40;68.60;;;;;;4993901;28;20034;-80
2021/07/08 11:11:25;;;;;;;13.73;11.95;;;28.40;67.40;;;;;;5011275;28;20026;-81
2021/07/08 11:13:52;;;;;;;12.80;11.40;;;28.40;68.50;;;;;;5010734;28;20030;-79
2021/07/08 11:16:47;;;;;;;13.10;11.45;;;28.40;70.30;;;;;;4992288;28;20468;-78
2021/07/08 11:19:13;;;;;;;12.60;11.15;;;28.60;69.50;;;;;;4991903;28;20116;-79
2021/07/08 11:22:04;;;;;;;16.55;12.55;;;28.60;67.20;;;;;;5010959;28;20033;-80
2021/07/08 11:24:46;;;;;;;17.75;13.13;;;28.60;68.30;;;;;;5009508;28;20014;-80
2021/07/08 11:27:37;;;;;;;14.23;11.55;;;28.50;67.10;;;;;;5010365;28;20014;-79
2021/07/08 11:30:12;;;;;;;14.98;12.80;;;28.50;69.00;;;;;;5009190;28;20034;-80
2021/07/08 11:32:45;;;;;;;15.65;11.80;;;28.60;69.60;;;;;;5010357;28;20101;-79
2021/07/08 11:35:18;;;;;;;14.77;12.10;;;28.60;69.60;;;;;;5001432;28;20468;-78
2021/07/08 11:38:03;;;;;;;16.63;12.15;;;28.70;68.80;;;;;;5012684;28;20112;-79
2021/07/08 11:40:35;;;;;;;15.35;12.40;;;28.80;68.90;;;;;;5014743;28;20029;-79
2021/07/08 11:43:12;;;;;;;15.73;11.68;;;28.70;70.80;;;;;;4995470;28;20472;-80
2021/07/08 11:45:38;;;;;;;16.08;12.13;;;28.70;69.50;;;;;;4995763;28;20010;-80
2021/07/08 11:48:04;;;;;;;18.00;12.02;;;28.70;71.00;;;;;;5014490;28;20037;-80
2021/07/08 11:50:35;;;;;;;16.15;12.98;;;28.70;71.40;;;;;;4995614;28;20022;-80
2021/07/08 11:53:17;;;;;;;15.07;12.23;;;28.80;72.20;;;;;;4996707;28;20057;-79
2021/07/08 11:55:49;;;;;;;16.67;12.23;;;29.00;72.10;;;;;;5013129;28;20022;-80
2021/07/08 11:58:23;;;;;;;16.30;11.43;;;29.40;71.10;;;;;;4996856;28;20029;-80
2021/07/08 12:00:51;;;;;;;12.82;11.50;;;29.70;70.40;;;;;;5013282;28;20314;-81
2021/07/08 12:03:20;;;;;;;12.73;11.38;;;29.80;68.30;;;;;;4996502;28;20018;-80
2021/07/08 12:05:46;;;;;;;14.68;11.10;;;29.60;68.90;;;;;;5012899;28;20029;-80
2021/07/08 12:08:23;;;;;;;14.77;11.43;;;29.70;66.60;;;;;;4997510;28;20029;-81
2021/07/08 12:10:54;;;;;;;14.60;10.95;;;29.60;68.10;;;;;;4995091;28;20442;-81
2021/07/08 12:13:20;;;;;;;12.65;10.02;;;29.70;69.10;;;;;;4995191;28;20049;-80
2021/07/08 12:15:46;;;;;;;11.88;10.55;;;29.80;68.70;;;;;;4996313;28;20029;-80
2021/07/08 12:18:12;;;;;;;12.80;10.68;;;29.80;67.60;;;;;;4996565;28;20026;-83
2021/07/08 12:20:49;;;;;;;13.77;10.05;;;29.60;69.70;;;;;;5013901;28;20026;-81
2021/07/08 12:23:15;;;;;;;14.13;10.65;;;29.80;68.20;;;;;;4994461;28;20029;-80
2021/07/08 12:25:41;;;;;;;11.07;9.98;;;29.90;69.20;;;;;;4997557;28;20022;-81
2021/07/08 12:28:07;;;;;;;10.93;9.75;;;29.90;66.10;;;;;;4996395;28;20025;-81
2021/07/08 12:30:33;;;;;;;14.60;10.98;;;30.10;68.80;;;;;;4996012;28;20033;-81
2021/07/08 12:33:13;;;;;;;12.75;9.43;;;30.10;69.70;;;;;;5013527;28;20112;-82
2021/07/08 12:35:46;;;;;;;18.63;10.95;;;30.30;67.20;;;;;;5001953;28;20033;-81
2021/07/08 12:38:14;;;;;;;16.02;9.98;;;30.30;68.20;;;;;;4996112;28;20141;-80
2021/07/08 12:40:41;;;;;;;10.77;9.32;;;30.20;68.20;;;;;;4996267;28;20022;-82
2021/07/08 12:43:18;;;;;;;10.68;8.90;;;30.30;64.50;;;;;;4996018;28;20021;-81
2021/07/08 12:45:44;;;;;;;10.10;9.10;;;30.40;63.00;;;;;;5009668;28;20014;-81